createdAt,value
2023-04-03T00:01:17.736Z,38.35
2023-04-03T00:11:19.212Z,38.43
2023-04-03T00:21:20.721Z,38.54
2023-04-03T00:31:22.296Z,38.81
2023-04-03T00:41:23.835Z,39.06
2023-04-03T00:51:25.324Z,39.33
2023-04-03T01:01:28.122Z,39.67
2023-04-03T01:11:29.562Z,39.63
2023-04-03T01:21:30.969Z,39.74
2023-04-03T01:31:35.770Z,39.91
2023-04-03T01:41:37.205Z,40.05
2023-04-03T01:51:38.676Z,40.25
2023-04-03T02:01:40.301Z,40.21
2023-04-03T02:11:41.742Z,40.37
2023-04-03T02:21:43.210Z,40.00
2023-04-03T02:31:44.616Z,39.69
2023-04-03T02:41:46.046Z,39.23
2023-04-03T02:51:48.587Z,39.09
2023-04-03T03:01:50.152Z,38.65
2023-04-03T03:11:51.760Z,38.42
2023-04-03T03:21:53.662Z,38.22
2023-04-03T03:31:55.208Z,37.98
2023-04-03T03:41:56.795Z,38.02
2023-04-03T03:51:58.358Z,38.13
2023-04-03T04:01:59.803Z,38.46
2023-04-03T04:12:01.465Z,38.28
2023-04-03T04:22:02.867Z,37.94
2023-04-03T04:32:04.786Z,37.63
2023-04-03T04:42:07.929Z,37.38
2023-04-03T04:52:09.361Z,37.31
2023-04-03T05:02:10.807Z,37.32
2023-04-03T05:12:12.443Z,37.41
2023-04-03T05:22:13.852Z,37.41
2023-04-03T05:32:15.451Z,37.38
2023-04-03T05:42:17.748Z,37.34
2023-04-03T05:52:30.743Z,37.34
2023-04-03T06:02:32.384Z,37.15
2023-04-03T06:12:33.844Z,37.17
2023-04-03T06:22:35.607Z,36.88
2023-04-03T06:32:37.065Z,36.13
2023-04-03T06:42:38.535Z,35.08
2023-04-03T06:52:41.004Z,34.30
2023-04-03T07:02:42.538Z,33.62
2023-04-03T07:12:43.969Z,32.93
2023-04-03T07:22:45.570Z,32.57
2023-04-03T07:32:47.272Z,32.00
2023-04-03T07:42:48.840Z,31.31
2023-04-03T07:52:51.694Z,31.04
2023-04-03T08:02:53.220Z,30.52
2023-04-03T08:12:54.791Z,30.19
2023-04-03T08:22:56.340Z,29.50
2023-04-03T08:32:57.795Z,28.91
2023-04-03T08:43:44.756Z,28.40
2023-04-03T08:53:53.157Z,27.78
2023-04-03T09:03:54.598Z,26.76
2023-04-03T09:14:18.985Z,24.51
2023-04-03T09:24:20.561Z,21.02
2023-04-03T09:34:24.562Z,20.58
2023-04-03T09:44:27.668Z,22.24
2023-04-03T09:54:39.516Z,22.67
2023-04-03T10:04:41.855Z,23.03
2023-04-03T10:14:57.641Z,26.06
2023-04-03T10:25:33.910Z,27.07
2023-04-03T10:35:53.529Z,27.55
2023-04-03T10:45:57.481Z,27.61
2023-04-03T10:56:16.744Z,28.25
2023-04-03T11:06:18.869Z,28.38
2023-04-03T11:16:24.188Z,28.80
2023-04-03T11:26:31.726Z,28.57
2023-04-03T11:36:48.415Z,29.12
2023-04-03T11:46:58.589Z,29.32
2023-04-03T11:57:00.205Z,29.49
2023-04-03T12:07:20.720Z,29.79
2023-04-03T12:17:27.770Z,29.48
2023-04-03T12:27:49.713Z,29.93
2023-04-03T12:38:19.444Z,30.01
2023-04-03T12:48:23.318Z,30.24
2023-04-03T12:58:25.891Z,30.35
2023-04-03T13:08:27.305Z,30.61
2023-04-03T13:18:33.211Z,30.60
2023-04-03T13:28:34.765Z,30.69
2023-04-03T13:38:37.561Z,30.80
2023-04-03T13:48:40.494Z,30.90
2023-04-03T13:58:53.955Z,31.22
2023-04-03T14:08:55.376Z,31.60
2023-04-03T14:18:57.538Z,31.73
2023-04-03T14:28:59.137Z,31.68
2023-04-03T14:39:01.631Z,31.64
2023-04-03T14:49:08.427Z,31.81
2023-04-03T14:59:10.827Z,31.86
2023-04-03T15:09:25.747Z,31.92
2023-04-03T15:19:27.317Z,32.01
2023-04-03T15:29:28.785Z,32.02
2023-04-03T15:39:30.268Z,32.14
2023-04-03T15:49:33.229Z,32.00
2023-04-03T15:59:34.693Z,32.04
2023-04-03T16:09:36.205Z,32.08
2023-04-03T16:19:37.692Z,32.20
2023-04-03T16:29:39.246Z,32.19
2023-04-03T16:39:40.644Z,32.29
2023-04-03T16:49:42.175Z,32.42
2023-04-03T16:59:43.695Z,32.47
2023-04-03T17:09:45.297Z,32.32
2023-04-03T17:19:46.728Z,32.48
2023-04-03T17:29:48.126Z,32.54
2023-04-03T17:39:49.532Z,32.76
2023-04-03T17:49:51.501Z,32.81
2023-04-03T17:59:53.936Z,32.87
2023-04-03T18:09:55.429Z,32.87
2023-04-03T18:19:56.856Z,33.09
2023-04-03T18:30:06.404Z,32.88
2023-04-03T18:40:08.390Z,33.08
2023-04-03T18:50:10.318Z,33.21
2023-04-03T19:00:13.009Z,33.33
2023-04-03T19:10:17.183Z,33.63
2023-04-03T19:20:19.794Z,33.67
2023-04-03T19:30:21.303Z,33.67
2023-04-03T19:40:22.721Z,33.71
2023-04-03T19:50:24.135Z,33.82
2023-04-03T20:00:26.261Z,33.95
2023-04-03T20:10:27.710Z,34.01
2023-04-03T20:20:29.362Z,34.09
2023-04-03T20:30:30.788Z,34.14
2023-04-03T20:40:32.551Z,34.22
2023-04-03T20:50:34.540Z,34.39
2023-04-03T21:00:38.212Z,34.29
2023-04-03T21:11:17.245Z,34.32
2023-04-03T21:21:23.242Z,34.43
2023-04-03T21:31:24.763Z,34.53
2023-04-03T21:41:26.529Z,34.55
2023-04-03T21:51:28.729Z,34.60
2023-04-03T22:01:30.335Z,34.69
2023-04-03T22:11:32.090Z,34.68
2023-04-03T22:21:33.606Z,34.80
2023-04-03T22:31:36.816Z,34.71
2023-04-03T22:41:38.577Z,34.37
2023-04-03T22:51:40.157Z,34.03
2023-04-03T23:01:41.667Z,33.82
2023-04-03T23:11:44.506Z,33.65
2023-04-03T23:21:46.705Z,33.57
2023-04-03T23:31:48.146Z,33.42
2023-04-03T23:41:50.201Z,33.46
2023-04-03T23:51:52.036Z,33.52
